createdAt,value
2023-09-12T00:00:50.056Z,42.17
2023-09-12T00:03:21.317Z,50.50
2023-09-12T00:05:55.980Z,47.38
2023-09-12T00:08:23.381Z,46.10
2023-09-12T00:11:07.530Z,49.83
2023-09-12T00:13:34.474Z,42.72
2023-09-12T00:16:02.326Z,45.20
2023-09-12T00:18:29.585Z,53.97
2023-09-12T00:20:56.613Z,51.70
2023-09-12T00:23:24.687Z,47.07
2023-09-12T00:25:54.570Z,49.58
2023-09-12T00:28:21.812Z,53.15
2023-09-12T00:30:48.803Z,46.35
2023-09-12T00:33:15.733Z,50.50
2023-09-12T00:35:42.535Z,43.10
2023-09-12T00:38:10.429Z,46.95
2023-09-12T00:40:38.514Z,46.15
2023-09-12T00:43:05.951Z,46.10
2023-09-12T00:45:32.967Z,46.78
2023-09-12T00:48:01.071Z,41.30
2023-09-12T00:50:28.462Z,42.70
2023-09-12T00:52:56.207Z,45.28
2023-09-12T00:55:23.214Z,46.05
2023-09-12T00:57:51.185Z,41.22
2023-09-12T01:00:18.175Z,41.43
2023-09-12T01:02:47.375Z,44.28
2023-09-12T01:05:17.849Z,46.65
2023-09-12T01:07:45.021Z,46.22
2023-09-12T01:10:12.113Z,39.17
2023-09-12T01:12:39.285Z,37.47
2023-09-12T01:15:11.193Z,42.72
2023-09-12T01:17:38.062Z,33.95
2023-09-12T01:20:07.577Z,37.28
2023-09-12T01:23:04.452Z,34.83
2023-09-12T01:25:41.430Z,34.97
2023-09-12T01:28:11.278Z,34.80
2023-09-12T01:30:41.629Z,34.95
2023-09-12T01:33:09.659Z,32.40
2023-09-12T01:35:36.542Z,33.25
2023-09-12T01:38:03.712Z,33.50
2023-09-12T01:40:45.358Z,32.17
2023-09-12T01:43:16.094Z,33.25
2023-09-12T01:45:45.923Z,33.42
2023-09-12T01:48:14.363Z,32.88
2023-09-12T01:50:41.234Z,33.30
2023-09-12T01:53:09.025Z,29.73
2023-09-12T01:55:36.875Z,35.65
2023-09-12T01:58:04.248Z,35.38
2023-09-12T02:00:31.878Z,39.85
2023-09-12T02:02:58.866Z,34.87
2023-09-12T02:05:25.765Z,30.38
2023-09-12T02:07:52.617Z,68.68
2023-09-12T02:10:19.540Z,33.40
2023-09-12T02:12:46.415Z,41.22
2023-09-12T02:15:13.700Z,37.83
2023-09-12T02:17:40.681Z,36.58
2023-09-12T02:20:11.100Z,46.45
2023-09-12T02:22:38.188Z,36.60
2023-09-12T02:25:06.424Z,36.45
2023-09-12T02:27:33.365Z,34.50
2023-09-12T02:30:00.312Z,43.40
2023-09-12T02:32:27.293Z,135.68
2023-09-12T02:34:54.490Z,54.22
2023-09-12T02:37:21.439Z,58.42
2023-09-12T02:39:48.293Z,36.60
2023-09-12T02:42:15.225Z,64.00
2023-09-12T02:44:42.148Z,58.10
2023-09-12T02:47:09.007Z,56.95
2023-09-12T02:49:35.969Z,199.85
2023-09-12T02:52:02.876Z,33.13
2023-09-12T02:54:29.805Z,36.83
2023-09-12T02:56:56.618Z,31.88
2023-09-12T02:59:23.448Z,34.97
2023-09-12T03:01:50.285Z,78.57
2023-09-12T03:04:17.192Z,35.63
2023-09-12T03:06:44.891Z,49.45
2023-09-12T03:09:12.788Z,36.53
2023-09-12T03:11:40.587Z,35.95
2023-09-12T03:14:07.626Z,25.58
2023-09-12T03:16:34.740Z,28.70
2023-09-12T03:19:03.364Z,22.15
2023-09-12T03:21:30.715Z,25.13
2023-09-12T03:23:57.941Z,23.70
2023-09-12T03:26:24.891Z,21.60
2023-09-12T03:28:52.319Z,20.60
2023-09-12T03:31:19.881Z,19.75
2023-09-12T03:33:50.644Z,22.20
2023-09-12T03:36:18.979Z,23.92
2023-09-12T03:38:46.274Z,20.88
2023-09-12T03:41:13.494Z,19.67
2023-09-12T03:43:40.666Z,18.73
2023-09-12T03:46:07.637Z,17.88
2023-09-12T03:48:37.226Z,18.55
2023-09-12T03:51:05.132Z,20.75
2023-09-12T03:53:32.053Z,18.23
2023-09-12T03:55:59.674Z,18.17
2023-09-12T03:58:27.248Z,17.40
2023-09-12T04:00:54.160Z,17.88
2023-09-12T04:03:22.253Z,15.80
2023-09-12T04:05:51.072Z,18.87
2023-09-12T04:08:18.194Z,16.38
2023-09-12T04:10:45.370Z,18.88
2023-09-12T04:13:12.236Z,15.38
2023-09-12T04:15:39.153Z,13.30
2023-09-12T04:18:06.471Z,16.03
2023-09-12T04:20:33.478Z,16.73
2023-09-12T04:23:04.236Z,15.40
2023-09-12T04:25:31.966Z,16.67
2023-09-12T04:27:59.020Z,19.30
2023-09-12T04:30:25.990Z,23.60
2023-09-12T04:32:53.247Z,18.92
2023-09-12T04:35:20.978Z,21.55
2023-09-12T04:37:48.847Z,21.42
2023-09-12T04:40:16.744Z,20.77
2023-09-12T04:42:43.693Z,21.17
2023-09-12T04:45:10.848Z,23.52
2023-09-12T04:47:37.833Z,23.52
2023-09-12T04:50:05.215Z,29.45
2023-09-12T04:52:34.191Z,29.15
2023-09-12T04:55:02.239Z,24.00
2023-09-12T04:57:31.932Z,37.97
2023-09-12T05:00:01.804Z,44.60
2023-09-12T05:02:29.310Z,30.27
2023-09-12T05:04:56.295Z,34.53
2023-09-12T05:07:24.558Z,34.97
2023-09-12T05:09:51.398Z,33.58
2023-09-12T05:12:19.153Z,36.03
2023-09-12T05:14:46.452Z,28.65
2023-09-12T05:17:13.346Z,29.90
2023-09-12T05:19:40.521Z,30.07
2023-09-12T05:22:07.360Z,31.98
2023-09-12T05:24:34.212Z,38.05
2023-09-12T05:27:01.226Z,35.15
2023-09-12T05:29:28.029Z,35.40
2023-09-12T05:31:55.052Z,41.67
2023-09-12T05:34:21.957Z,42.15
2023-09-12T05:36:48.766Z,41.25
2023-09-12T05:39:15.655Z,35.85
2023-09-12T05:41:42.941Z,38.40
2023-09-12T05:44:10.677Z,36.80
2023-09-12T05:46:37.626Z,37.53
2023-09-12T05:49:04.951Z,39.28
2023-09-12T05:51:32.404Z,38.90
2023-09-12T05:53:59.401Z,34.33
2023-09-12T05:56:26.325Z,45.73
2023-09-12T05:58:53.232Z,42.42
2023-09-12T06:01:20.209Z,35.58
2023-09-12T06:03:47.402Z,39.35
2023-09-12T06:06:14.754Z,39.58
2023-09-12T06:08:41.762Z,37.43
2023-09-12T06:11:08.716Z,39.50
2023-09-12T06:13:38.498Z,41.08
2023-09-12T06:16:07.105Z,35.75
2023-09-12T06:18:37.023Z,40.33
2023-09-12T06:21:09.725Z,37.73
2023-09-12T06:23:37.620Z,44.78
2023-09-12T06:26:04.485Z,44.17
2023-09-12T06:28:32.614Z,45.25
2023-09-12T06:31:00.059Z,38.05
2023-09-12T06:33:27.982Z,37.83
2023-09-12T06:35:55.553Z,42.30
2023-09-12T06:38:23.805Z,46.00
2023-09-12T06:40:50.715Z,45.40
2023-09-12T06:43:17.572Z,41.13
2023-09-12T06:45:44.757Z,45.70
2023-09-12T06:48:11.762Z,41.90
2023-09-12T06:50:39.698Z,50.78
2023-09-12T06:53:11.167Z,47.40
2023-09-12T06:55:38.231Z,49.75
2023-09-12T06:58:05.259Z,42.60
2023-09-12T07:00:32.312Z,45.22
2023-09-12T07:02:59.731Z,46.78
2023-09-12T07:05:26.609Z,50.65
2023-09-12T07:07:54.105Z,51.38
2023-09-12T07:10:24.488Z,50.27
2023-09-12T07:12:52.264Z,53.55
2023-09-12T07:15:19.232Z,49.75
2023-09-12T07:17:46.157Z,46.58
2023-09-12T07:20:13.424Z,52.42
2023-09-12T07:22:43.431Z,55.13
2023-09-12T07:25:12.703Z,49.88
2023-09-12T07:27:40.072Z,46.83
2023-09-12T07:30:08.081Z,46.03
2023-09-12T07:32:35.152Z,43.58
2023-09-12T07:35:02.227Z,54.70
2023-09-12T07:37:29.057Z,56.65
2023-09-12T07:39:55.884Z,46.95
2023-09-12T07:42:26.089Z,55.92
2023-09-12T07:44:53.004Z,52.58
2023-09-12T07:47:20.642Z,47.93
2023-09-12T07:49:53.607Z,57.35
2023-09-12T07:52:20.465Z,51.97
2023-09-12T07:54:47.272Z,50.92
2023-09-12T07:57:14.100Z,54.53
2023-09-12T07:59:40.906Z,46.83
2023-09-12T08:02:07.753Z,43.67
2023-09-12T08:04:35.241Z,41.80
2023-09-12T08:07:02.216Z,41.58
2023-09-12T08:09:55.823Z,39.95
2023-09-12T08:12:24.332Z,39.43
2023-09-12T08:14:51.114Z,40.53
2023-09-12T08:17:18.072Z,40.85
2023-09-12T08:19:45.317Z,38.78
2023-09-12T08:22:13.032Z,42.00
2023-09-12T08:24:42.705Z,41.77
2023-09-12T08:27:11.120Z,35.80
2023-09-12T08:29:38.032Z,41.97
2023-09-12T08:32:05.178Z,43.25
2023-09-12T08:34:32.081Z,41.70
2023-09-12T08:36:58.921Z,39.83
2023-09-12T08:39:28.433Z,40.20
2023-09-12T08:41:55.656Z,38.30
2023-09-12T08:44:22.802Z,37.50
2023-09-12T08:46:50.364Z,34.13
2023-09-12T08:49:17.578Z,36.10
2023-09-12T08:51:45.716Z,36.97
2023-09-12T08:54:12.709Z,39.40
2023-09-12T08:56:42.625Z,37.33
2023-09-12T08:59:11.461Z,36.65
2023-09-12T09:01:39.681Z,34.23
2023-09-12T09:04:07.418Z,34.95
2023-09-12T09:06:38.467Z,33.80
2023-09-12T09:09:09.501Z,36.33
2023-09-12T09:11:36.638Z,43.67
2023-09-12T09:14:04.304Z,34.57
2023-09-12T09:16:32.057Z,32.13
2023-09-12T09:19:10.857Z,37.65
2023-09-12T09:21:41.831Z,41.03
2023-09-12T09:24:10.476Z,34.85
2023-09-12T09:26:43.115Z,34.53
2023-09-12T09:29:11.669Z,36.58
2023-09-12T09:31:43.165Z,30.75
2023-09-12T09:34:20.527Z,34.08
2023-09-12T09:36:53.042Z,33.20
2023-09-12T09:39:25.478Z,36.17
2023-09-12T09:41:54.744Z,31.10
2023-09-12T09:44:27.426Z,40.58
2023-09-12T09:47:01.763Z,36.20
2023-09-12T09:49:28.864Z,38.95
2023-09-12T09:51:58.079Z,38.37
2023-09-12T09:54:26.757Z,43.38
2023-09-12T09:56:58.028Z,39.00
2023-09-12T09:59:26.831Z,34.05
2023-09-12T10:02:00.987Z,34.28
2023-09-12T10:04:45.568Z,41.67
2023-09-12T10:07:13.546Z,41.17
2023-09-12T10:09:41.968Z,37.67
2023-09-12T10:12:09.801Z,38.15
2023-09-12T10:14:40.271Z,40.85
2023-09-12T10:17:08.220Z,43.17
2023-09-12T10:19:56.680Z,36.88
2023-09-12T10:22:33.033Z,39.13
2023-09-12T10:25:00.671Z,42.00
2023-09-12T10:27:28.395Z,41.72
2023-09-12T10:29:57.032Z,43.87
2023-09-12T10:32:24.521Z,36.63
2023-09-12T10:34:52.995Z,43.75
2023-09-12T10:37:23.126Z,36.83
2023-09-12T10:39:50.581Z,39.90
2023-09-12T10:42:18.317Z,40.63
2023-09-12T10:44:47.692Z,34.42
2023-09-12T10:47:15.524Z,37.25
2023-09-12T10:49:45.130Z,34.65
2023-09-12T10:52:24.577Z,35.88
2023-09-12T10:54:51.512Z,31.10
2023-09-12T10:57:18.704Z,30.55
2023-09-12T11:00:14.535Z,33.80
2023-09-12T11:02:42.143Z,28.30
2023-09-12T11:05:29.159Z,28.73
2023-09-12T11:08:00.868Z,28.57
2023-09-12T11:10:28.854Z,30.60
2023-09-12T11:13:00.472Z,26.08
2023-09-12T11:15:32.331Z,28.92
2023-09-12T11:18:06.905Z,29.60
2023-09-12T11:20:59.168Z,29.13
2023-09-12T11:23:26.873Z,23.58
2023-09-12T11:26:12.226Z,26.67
2023-09-12T11:28:40.348Z,27.13
2023-09-12T11:31:07.383Z,25.60
2023-09-12T11:33:34.849Z,27.87
2023-09-12T11:36:04.664Z,24.77
2023-09-12T11:38:32.789Z,22.38
2023-09-12T11:41:01.114Z,22.48
2023-09-12T11:43:28.916Z,22.73
2023-09-12T11:45:57.371Z,24.40
2023-09-12T11:48:24.473Z,20.38
2023-09-12T11:50:57.310Z,21.42
2023-09-12T11:53:30.928Z,20.35
2023-09-12T11:56:01.960Z,19.10
2023-09-12T11:58:29.217Z,16.97
2023-09-12T12:00:58.499Z,21.60
2023-09-12T12:03:27.119Z,18.13
2023-09-12T12:05:56.737Z,19.33
2023-09-12T12:10:55.385Z,19.97
2023-09-12T12:13:23.582Z,20.60
2023-09-12T12:15:51.101Z,18.77
2023-09-12T12:18:18.022Z,15.77
2023-09-12T12:20:44.870Z,15.13
2023-09-12T12:23:12.230Z,14.93
2023-09-12T12:25:39.315Z,18.70
2023-09-12T12:28:06.392Z,23.27
2023-09-12T12:30:35.647Z,22.45
2023-09-12T12:33:21.164Z,20.77
2023-09-12T12:36:02.173Z,18.87
2023-09-12T12:38:32.618Z,15.73
2023-09-12T12:40:59.519Z,18.50
2023-09-12T12:43:28.270Z,16.63
2023-09-12T12:45:56.518Z,15.02
2023-09-12T12:48:33.363Z,16.00
2023-09-12T12:51:01.015Z,17.90
2023-09-12T12:53:52.105Z,17.50
2023-09-12T12:56:23.406Z,15.77
2023-09-12T12:58:58.962Z,16.17
2023-09-12T13:01:26.500Z,19.57
2023-09-12T13:03:55.447Z,18.42
2023-09-12T13:06:22.505Z,19.63
2023-09-12T13:08:51.000Z,16.23
2023-09-12T13:11:18.559Z,13.02
2023-09-12T13:13:46.538Z,11.33
2023-09-12T13:16:15.149Z,12.05
2023-09-12T13:18:42.886Z,8.95
2023-09-12T13:21:09.923Z,6.72
2023-09-12T13:23:38.803Z,7.57
2023-09-12T13:26:07.862Z,5.73
2023-09-12T13:28:34.776Z,9.07
2023-09-12T13:31:01.657Z,12.07
2023-09-12T13:33:28.521Z,8.73
2023-09-12T13:35:55.290Z,9.35
2023-09-12T13:38:24.229Z,10.17
2023-09-12T13:40:51.418Z,9.52
2023-09-12T13:43:19.460Z,11.63
2023-09-12T13:45:46.408Z,7.22
2023-09-12T13:48:14.798Z,8.45
2023-09-12T13:50:44.029Z,7.30
2023-09-12T13:53:11.143Z,7.72
2023-09-12T13:56:14.052Z,11.48
2023-09-12T13:58:28.393Z,10.30
2023-09-12T14:00:57.711Z,11.65
2023-09-12T14:03:24.797Z,13.07
2023-09-12T14:05:52.506Z,10.80
2023-09-12T14:08:20.777Z,12.85
2023-09-12T14:10:48.796Z,11.45
2023-09-12T14:13:22.228Z,11.60
2023-09-12T14:15:51.697Z,15.23
2023-09-12T14:18:20.169Z,17.73
2023-09-12T14:20:48.234Z,15.13
2023-09-12T14:23:16.519Z,15.00
2023-09-12T14:25:43.769Z,19.27
2023-09-12T14:28:12.026Z,16.10
2023-09-12T14:30:39.567Z,19.40
2023-09-12T14:33:06.795Z,20.00
2023-09-12T14:35:33.890Z,15.95
2023-09-12T14:38:00.817Z,18.23
2023-09-12T14:40:28.522Z,19.17
2023-09-12T14:42:55.821Z,19.42
2023-09-12T14:45:23.303Z,20.23
2023-09-12T14:47:50.155Z,17.00
2023-09-12T14:50:17.687Z,13.63
2023-09-12T14:52:44.998Z,18.27
2023-09-12T14:55:11.769Z,15.05
2023-09-12T14:57:38.594Z,13.82
2023-09-12T15:00:06.435Z,13.23
2023-09-12T15:02:33.697Z,18.92
2023-09-12T15:05:02.120Z,13.13
2023-09-12T15:07:30.869Z,11.68
2023-09-12T15:09:58.589Z,12.02
2023-09-12T15:12:26.365Z,15.15
2023-09-12T15:14:53.320Z,14.75
2023-09-12T15:17:20.475Z,12.60
2023-09-12T15:19:47.829Z,13.07
2023-09-12T15:22:14.640Z,14.88
2023-09-12T15:24:42.039Z,14.98
2023-09-12T15:27:09.112Z,15.95
2023-09-12T15:29:35.982Z,13.23
2023-09-12T15:32:02.799Z,12.73
2023-09-12T15:34:29.719Z,13.02
2023-09-12T15:39:41.551Z,11.65
2023-09-12T15:42:08.423Z,10.80
2023-09-12T15:44:35.215Z,8.35
2023-09-12T15:47:14.207Z,7.18
2023-09-12T15:49:45.876Z,9.95
2023-09-12T15:52:12.827Z,8.10
2023-09-12T15:54:39.638Z,6.03
2023-09-12T15:57:06.813Z,5.22
2023-09-12T15:59:33.785Z,6.70
2023-09-12T16:02:00.598Z,5.38
2023-09-12T16:04:27.985Z,4.90
2023-09-12T16:06:55.165Z,7.23
2023-09-12T16:09:22.518Z,6.25
2023-09-12T16:11:49.400Z,6.53
2023-09-12T16:14:17.142Z,9.95
2023-09-12T16:16:44.152Z,6.32
2023-09-12T16:19:12.249Z,7.70
2023-09-12T16:21:39.718Z,7.93
2023-09-12T16:24:11.829Z,8.75
2023-09-12T16:26:38.698Z,8.00
2023-09-12T16:29:05.506Z,8.70
2023-09-12T16:31:32.404Z,11.27
2023-09-12T16:33:59.399Z,14.25
2023-09-12T16:36:26.338Z,11.38
2023-09-12T16:38:54.442Z,15.93
2023-09-12T16:41:21.385Z,13.73
2023-09-12T16:43:48.301Z,12.80
2023-09-12T16:46:15.173Z,15.80
2023-09-12T16:48:43.314Z,14.85
2023-09-12T16:51:10.539Z,18.25
2023-09-12T16:53:37.366Z,20.67
2023-09-12T16:56:04.415Z,16.33
2023-09-12T16:58:31.437Z,20.17
2023-09-12T17:00:59.164Z,18.95
2023-09-12T17:03:26.246Z,20.25
2023-09-12T17:05:53.259Z,27.75
2023-09-12T17:08:20.126Z,19.27
2023-09-12T17:10:47.060Z,18.80
2023-09-12T17:13:13.895Z,19.40
2023-09-12T17:15:40.827Z,24.05
2023-09-12T17:18:07.845Z,20.67
2023-09-12T17:20:34.949Z,23.63
2023-09-12T17:23:01.851Z,20.40
2023-09-12T17:25:28.690Z,19.17
2023-09-12T17:27:55.709Z,20.45
2023-09-12T17:30:23.461Z,20.50
2023-09-12T17:32:51.170Z,21.27
2023-09-12T17:35:18.200Z,23.92
2023-09-12T17:37:45.043Z,22.33
2023-09-12T17:40:12.301Z,21.60
2023-09-12T17:42:39.529Z,26.88
2023-09-12T17:45:07.034Z,22.70
2023-09-12T17:47:35.902Z,22.80
2023-09-12T17:50:04.779Z,23.73
2023-09-12T17:52:31.789Z,26.77
2023-09-12T17:54:58.753Z,24.80
2023-09-12T17:57:25.775Z,21.47
2023-09-12T17:59:56.329Z,25.90
2023-09-12T18:02:23.327Z,28.23
2023-09-12T18:04:50.571Z,29.67
2023-09-12T18:07:17.864Z,27.88
2023-09-12T18:09:44.965Z,28.90
2023-09-12T18:12:11.867Z,31.83
2023-09-12T18:14:38.750Z,24.98
2023-09-12T18:17:05.855Z,24.85
2023-09-12T18:19:32.830Z,28.00
2023-09-12T18:21:59.749Z,29.80
2023-09-12T18:24:27.753Z,27.98
2023-09-12T18:26:54.636Z,25.38
2023-09-12T18:29:23.616Z,30.85
2023-09-12T18:31:51.067Z,26.13
2023-09-12T18:34:18.437Z,24.90
2023-09-12T18:36:45.675Z,26.65
2023-09-12T18:39:12.590Z,24.88
2023-09-12T18:41:39.871Z,23.88
2023-09-12T18:44:06.963Z,25.10
2023-09-12T18:46:33.959Z,24.33
2023-09-12T18:49:01.009Z,24.83
2023-09-12T18:51:27.888Z,23.25
2023-09-12T18:53:54.762Z,22.55
2023-09-12T18:56:21.612Z,23.73
2023-09-12T18:58:48.427Z,17.63
2023-09-12T19:01:15.958Z,19.80
2023-09-12T19:03:44.443Z,19.63
2023-09-12T19:06:11.973Z,17.10
2023-09-12T19:08:41.584Z,14.95
2023-09-12T19:11:09.517Z,14.93
2023-09-12T19:13:36.347Z,19.00
2023-09-12T19:16:03.997Z,17.38
2023-09-12T19:18:31.854Z,14.35
2023-09-12T19:20:58.729Z,14.05
2023-09-12T19:23:25.611Z,13.83
2023-09-12T19:25:52.402Z,16.10
2023-09-12T19:28:19.377Z,12.93
2023-09-12T19:30:46.269Z,22.20
2023-09-12T19:33:13.255Z,17.17
2023-09-12T19:35:41.951Z,20.40
2023-09-12T19:38:09.961Z,14.65
2023-09-12T19:40:39.425Z,16.30
2023-09-12T19:43:06.280Z,14.23
2023-09-12T19:45:35.615Z,17.05
2023-09-12T19:48:03.445Z,15.73
2023-09-12T19:50:33.093Z,15.82
2023-09-12T19:52:59.880Z,13.18
2023-09-12T19:55:26.982Z,15.77
2023-09-12T19:57:54.134Z,17.30
2023-09-12T20:00:21.045Z,15.73
2023-09-12T20:02:50.005Z,14.98
2023-09-12T20:05:21.713Z,22.25
2023-09-12T20:07:50.710Z,22.88
2023-09-12T20:10:22.890Z,26.70
2023-09-12T20:12:52.121Z,20.37
2023-09-12T20:15:23.816Z,22.02
2023-09-12T20:17:53.499Z,23.00
2023-09-12T20:20:20.628Z,21.27
2023-09-12T20:22:49.260Z,21.75
2023-09-12T20:25:16.524Z,15.30
2023-09-12T20:27:43.387Z,17.02
2023-09-12T20:30:10.629Z,23.83
2023-09-12T20:32:51.614Z,29.30
2023-09-12T20:35:26.536Z,20.38
2023-09-12T20:37:53.428Z,15.30
2023-09-12T20:40:20.441Z,18.58
2023-09-12T20:42:49.163Z,18.83
2023-09-12T20:45:16.172Z,21.83
2023-09-12T20:47:42.989Z,22.67
2023-09-12T20:50:11.599Z,23.70
2023-09-12T20:52:38.982Z,19.88
2023-09-12T20:55:06.768Z,22.33
2023-09-12T20:57:36.415Z,24.52
2023-09-12T21:00:05.873Z,17.70
2023-09-12T21:02:35.548Z,23.63
2023-09-12T21:05:02.421Z,22.80
2023-09-12T21:07:29.211Z,19.27
2023-09-12T21:09:55.996Z,22.45
2023-09-12T21:12:25.329Z,24.55
2023-09-12T21:14:52.714Z,27.90
2023-09-12T21:17:19.533Z,24.48
2023-09-12T21:19:46.326Z,23.13
2023-09-12T21:22:13.151Z,27.23
2023-09-12T21:24:40.300Z,26.80
2023-09-12T21:27:07.120Z,24.07
2023-09-12T21:29:33.946Z,28.08
2023-09-12T21:32:00.931Z,24.27
2023-09-12T21:34:28.845Z,27.80
2023-09-12T21:36:55.903Z,30.30
2023-09-12T21:39:23.704Z,33.53
2023-09-12T21:41:50.758Z,31.13
2023-09-12T21:44:17.588Z,33.30
2023-09-12T21:46:44.512Z,26.63
2023-09-12T21:49:11.423Z,24.85
2023-09-12T21:51:38.313Z,24.33
2023-09-12T21:54:05.453Z,25.95
2023-09-12T21:56:32.294Z,23.23
2023-09-12T21:58:59.139Z,27.20
2023-09-12T22:01:26.116Z,24.23
2023-09-12T22:03:52.989Z,20.13
2023-09-12T22:06:19.812Z,25.10
2023-09-12T22:08:46.669Z,25.23
2023-09-12T22:11:15.157Z,27.58
2023-09-12T22:13:42.423Z,26.13
2023-09-12T22:16:09.535Z,27.87
2023-09-12T22:18:36.613Z,27.98
2023-09-12T22:21:08.541Z,21.88
2023-09-12T22:23:37.154Z,25.02
2023-09-12T22:26:14.352Z,29.27
2023-09-12T22:28:41.279Z,30.10
2023-09-12T22:31:12.344Z,34.97
2023-09-12T22:33:40.207Z,32.15
2023-09-12T22:36:18.028Z,31.35
2023-09-12T22:38:47.194Z,27.73
2023-09-12T22:41:14.023Z,22.87
2023-09-12T22:43:40.897Z,24.65
2023-09-12T22:46:08.680Z,22.55
2023-09-12T22:48:35.698Z,24.35
2023-09-12T22:51:02.555Z,24.27
2023-09-12T22:53:29.480Z,32.60
2023-09-12T22:55:56.219Z,31.80
2023-09-12T22:58:23.004Z,28.98
2023-09-12T23:00:50.515Z,34.92
2023-09-12T23:03:17.724Z,32.95
2023-09-12T23:05:44.585Z,24.93
2023-09-12T23:08:11.368Z,25.08
2023-09-12T23:10:38.265Z,27.80
2023-09-12T23:13:05.196Z,34.30
2023-09-12T23:15:32.171Z,32.92
2023-09-12T23:17:59.065Z,31.80
2023-09-12T23:20:28.645Z,34.40
2023-09-12T23:22:55.617Z,34.63
2023-09-12T23:25:22.355Z,35.88
2023-09-12T23:27:49.152Z,31.70
2023-09-12T23:30:16.227Z,33.90
2023-09-12T23:32:45.277Z,35.35
2023-09-12T23:35:12.149Z,29.23
2023-09-12T23:37:39.193Z,30.48
2023-09-12T23:40:06.767Z,29.92
2023-09-12T23:42:33.824Z,36.80
2023-09-12T23:45:03.038Z,37.85
2023-09-12T23:47:31.073Z,32.67
2023-09-12T23:49:58.043Z,30.48
2023-09-12T23:52:24.886Z,33.85
2023-09-12T23:54:51.821Z,26.53
2023-09-12T23:57:18.708Z,25.15
2023-09-12T23:59:45.551Z,27.13
